createdAt,value
2023-04-29T00:03:51.730Z,0.00
2023-04-29T00:08:53.572Z,0.00
2023-04-29T00:13:55.337Z,0.00
2023-04-29T00:18:57.665Z,0.00
2023-04-29T00:24:00.141Z,0.00
2023-04-29T00:29:02.124Z,0.00
2023-04-29T00:34:03.970Z,0.00
2023-04-29T00:39:05.977Z,0.00
2023-04-29T00:44:07.882Z,0.00
2023-04-29T00:49:11.057Z,0.00
2023-04-29T00:54:13.766Z,0.00
2023-04-29T00:59:17.132Z,0.67
2023-04-29T01:04:19.219Z,0.00
2023-04-29T01:09:50.103Z,0.00
2023-04-29T01:15:05.785Z,0.00
2023-04-29T01:20:10.522Z,0.33
2023-04-29T01:25:12.460Z,0.00
2023-04-29T01:30:53.449Z,0.00
2023-04-29T01:36:22.613Z,0.00
2023-04-29T01:41:33.879Z,0.00
2023-04-29T01:46:50.901Z,0.33
2023-04-29T01:51:54.667Z,0.00
2023-04-29T01:56:57.479Z,0.00
2023-04-29T02:02:10.421Z,0.00
2023-04-29T02:07:19.559Z,0.00
2023-04-29T02:12:22.549Z,0.00
2023-04-29T02:17:24.592Z,0.00
2023-04-29T02:22:26.881Z,0.00
2023-04-29T02:27:32.526Z,0.00
2023-04-29T02:32:34.345Z,0.00
2023-04-29T02:37:36.274Z,0.00
2023-04-29T02:42:38.329Z,0.00
2023-04-29T02:47:40.222Z,0.00
2023-04-29T02:52:42.390Z,0.00
2023-04-29T02:57:44.511Z,0.33
2023-04-29T03:02:46.427Z,0.00
2023-04-29T03:07:49.645Z,0.00
2023-04-29T03:12:51.564Z,0.00
2023-04-29T03:17:53.443Z,0.00
2023-04-29T03:22:55.440Z,0.00
2023-04-29T03:27:57.324Z,0.00
2023-04-29T03:32:59.698Z,0.67
2023-04-29T03:38:03.555Z,1.00
2023-04-29T03:43:09.386Z,1.00
2023-04-29T03:48:12.517Z,0.00
2023-04-29T03:53:15.265Z,2.00
2023-04-29T03:58:17.244Z,1.00
2023-04-29T04:03:19.774Z,1.00
2023-04-29T04:08:21.808Z,0.00
2023-04-29T04:13:30.320Z,0.00
2023-04-29T04:18:32.650Z,0.00
2023-04-29T04:23:34.888Z,0.00
2023-04-29T04:28:38.217Z,0.00
2023-04-29T04:33:44.578Z,0.00
2023-04-29T04:38:47.335Z,0.00
2023-04-29T04:43:49.571Z,0.00
2023-04-29T04:49:17.737Z,0.00
2023-04-29T04:54:25.226Z,0.00
2023-04-29T04:59:35.778Z,1.00
2023-04-29T05:04:37.882Z,0.00
2023-04-29T05:09:39.794Z,0.00
2023-04-29T05:14:41.672Z,0.00
2023-04-29T05:19:43.742Z,0.00
2023-04-29T05:24:48.273Z,0.00
2023-04-29T05:29:51.643Z,0.00
2023-04-29T05:34:53.802Z,0.00
2023-04-29T05:39:56.090Z,0.00
2023-04-29T05:44:58.445Z,0.00
2023-04-29T05:50:00.273Z,0.00
2023-04-29T05:55:03.750Z,0.00
2023-04-29T06:00:07.227Z,0.00
2023-04-29T06:05:15.915Z,0.33
2023-04-29T06:10:29.500Z,0.00
2023-04-29T06:15:31.665Z,0.00
2023-04-29T06:20:34.900Z,0.00
2023-04-29T06:25:38.101Z,0.00
2023-04-29T06:30:42.169Z,0.00
2023-04-29T06:35:44.851Z,0.00
2023-04-29T06:41:05.301Z,0.00
2023-04-29T06:46:28.013Z,0.00
2023-04-29T06:51:38.052Z,0.00
2023-04-29T06:56:39.959Z,0.00
2023-04-29T07:01:44.278Z,0.00
2023-04-29T07:06:47.340Z,0.00
2023-04-29T07:11:49.519Z,0.00
2023-04-29T07:16:55.408Z,0.00
2023-04-29T07:21:57.871Z,0.00
2023-04-29T07:26:59.941Z,0.00
2023-04-29T07:32:01.789Z,0.00
2023-04-29T07:37:03.938Z,0.00
2023-04-29T07:42:06.152Z,0.00
2023-04-29T07:47:08.240Z,0.00
2023-04-29T07:52:10.367Z,0.00
2023-04-29T07:57:12.295Z,0.00
2023-04-29T08:02:16.631Z,0.00
2023-04-29T08:07:18.652Z,0.00
2023-04-29T08:12:20.526Z,1.00
2023-04-29T08:17:22.612Z,0.00
2023-04-29T08:22:24.738Z,0.00
2023-04-29T08:27:27.106Z,0.00
2023-04-29T08:32:29.029Z,0.00
2023-04-29T08:37:30.947Z,0.00
2023-04-29T08:42:35.104Z,0.00
2023-04-29T08:47:37.915Z,0.00
2023-04-29T08:52:39.886Z,0.00
2023-04-29T08:57:43.329Z,0.00
2023-04-29T09:02:49.691Z,0.00
2023-04-29T09:07:52.601Z,1.00
2023-04-29T09:13:01.350Z,0.00
2023-04-29T09:18:03.298Z,1.00
2023-04-29T09:23:05.237Z,1.00
2023-04-29T09:28:19.107Z,0.67
2023-04-29T09:33:20.963Z,0.00
2023-04-29T09:38:22.865Z,2.00
2023-04-29T09:43:24.690Z,2.00
2023-04-29T09:48:33.741Z,1.00
2023-04-29T09:53:38.259Z,1.00
2023-04-29T09:58:40.517Z,1.00
2023-04-29T10:03:43.795Z,1.33
2023-04-29T10:08:47.225Z,1.33
2023-04-29T10:13:52.228Z,0.00
2023-04-29T10:18:56.452Z,0.00
2023-04-29T10:23:59.864Z,0.00
2023-04-29T10:29:03.534Z,0.00
2023-04-29T10:34:05.394Z,0.00
2023-04-29T10:39:17.139Z,0.00
2023-04-29T10:44:19.201Z,1.00
2023-04-29T10:49:23.632Z,1.00
2023-04-29T10:54:27.976Z,0.33
2023-04-29T10:59:32.567Z,1.00
2023-04-29T11:04:34.492Z,0.00
2023-04-29T11:09:38.672Z,1.00
2023-04-29T11:14:40.449Z,1.00
2023-04-29T11:19:51.008Z,1.00
2023-04-29T11:24:56.930Z,1.67
2023-04-29T11:30:00.891Z,1.00
2023-04-29T11:35:15.635Z,2.00
2023-04-29T11:40:17.532Z,1.00
2023-04-29T11:45:20.138Z,2.67
2023-04-29T11:50:22.103Z,2.00
2023-04-29T11:55:26.005Z,2.00
2023-04-29T12:00:27.893Z,2.00
2023-04-29T12:05:30.211Z,1.67
2023-04-29T12:10:32.618Z,2.00
2023-04-29T12:15:35.559Z,5.00
2023-04-29T12:20:39.295Z,6.00
2023-04-29T12:25:41.726Z,5.67
2023-04-29T12:30:51.664Z,6.00
2023-04-29T12:35:58.580Z,7.00
2023-04-29T12:41:05.567Z,5.00
2023-04-29T12:46:08.750Z,8.00
2023-04-29T12:51:11.476Z,4.33
2023-04-29T12:56:13.633Z,2.67
2023-04-29T13:01:18.360Z,2.00
2023-04-29T13:06:20.530Z,2.00
2023-04-29T13:11:22.416Z,0.00
2023-04-29T13:16:25.233Z,0.33
2023-04-29T13:21:28.018Z,1.00
2023-04-29T13:26:30.335Z,0.00
2023-04-29T13:31:32.443Z,0.00
2023-04-29T13:36:34.197Z,0.00
2023-04-29T13:41:36.015Z,0.00
2023-04-29T13:46:38.296Z,0.00
2023-04-29T14:06:56.590Z,0.00
2023-04-29T14:11:58.411Z,0.00
2023-04-29T14:17:01.424Z,0.00
2023-04-29T14:22:03.348Z,0.00
2023-04-29T14:27:05.262Z,0.00
2023-04-29T14:32:07.571Z,0.00
2023-04-29T14:37:09.502Z,0.00
2023-04-29T14:42:12.782Z,0.00
2023-04-29T14:47:14.663Z,0.00
2023-04-29T14:52:16.608Z,0.00
2023-04-29T14:57:18.476Z,11.33
2023-04-29T15:02:20.378Z,2.00
2023-04-29T15:07:22.883Z,2.00
2023-04-29T15:12:25.150Z,2.00
2023-04-29T15:17:27.085Z,2.00
2023-04-29T15:22:29.224Z,5.00
2023-04-29T15:27:31.047Z,3.67
2023-04-29T15:32:33.231Z,1.00
2023-04-29T15:37:35.329Z,0.00
2023-04-29T15:42:37.173Z,0.33
2023-04-29T15:47:39.183Z,0.00
2023-04-29T15:52:41.262Z,0.00
2023-04-29T15:57:43.221Z,1.00
2023-04-29T16:02:45.168Z,1.00
2023-04-29T16:07:47.082Z,3.00
2023-04-29T16:12:49.201Z,0.33
2023-04-29T16:17:52.022Z,1.00
2023-04-29T16:22:55.135Z,1.00
2023-04-29T16:27:57.823Z,0.67
2023-04-29T16:32:59.855Z,1.00
2023-04-29T16:38:02.691Z,1.00
2023-04-29T16:43:04.652Z,1.00
2023-04-29T16:48:07.101Z,1.33
2023-04-29T16:53:08.958Z,0.00
2023-04-29T16:58:10.841Z,1.00
2023-04-29T17:03:13.005Z,0.00
2023-04-29T17:08:15.077Z,0.00
2023-04-29T17:13:16.931Z,0.00
2023-04-29T17:18:20.035Z,0.00
2023-04-29T17:23:22.080Z,1.00
2023-04-29T17:28:24.110Z,0.33
2023-04-29T17:33:34.311Z,0.00
2023-04-29T17:38:36.349Z,0.00
2023-04-29T17:43:38.164Z,0.00
2023-04-29T17:48:39.977Z,0.00
2023-04-29T17:53:42.350Z,0.00
2023-04-29T17:58:44.191Z,0.00
2023-04-29T18:03:47.117Z,0.00
2023-04-29T18:08:49.038Z,0.00
2023-04-29T18:13:52.973Z,0.00
2023-04-29T18:18:56.737Z,0.00
2023-04-29T18:23:59.262Z,0.00
2023-04-29T18:29:01.198Z,0.00
2023-04-29T18:34:03.411Z,0.00
2023-04-29T18:39:05.231Z,0.00
2023-04-29T18:44:07.064Z,0.00
2023-04-29T18:49:11.823Z,0.00
2023-04-29T18:54:19.064Z,0.00
2023-04-29T18:59:21.051Z,0.00
2023-04-29T19:04:23.062Z,0.00
2023-04-29T19:09:24.917Z,0.00
2023-04-29T19:14:27.005Z,0.00
2023-04-29T19:19:30.228Z,0.00
2023-04-29T19:24:32.808Z,0.00
2023-04-29T19:29:34.678Z,0.00
2023-04-29T19:34:36.696Z,0.00
2023-04-29T19:39:38.578Z,0.00
2023-04-29T19:44:40.432Z,1.00
2023-04-29T19:49:42.594Z,0.67
2023-04-29T19:54:44.472Z,0.00
2023-04-29T19:59:46.397Z,0.00
2023-04-29T20:04:48.299Z,0.00
2023-04-29T20:09:50.216Z,0.00
2023-04-29T20:14:52.102Z,0.00
2023-04-29T20:19:54.289Z,0.00
2023-04-29T20:24:56.589Z,0.00
2023-04-29T20:29:58.518Z,0.00
2023-04-29T20:35:00.672Z,1.00
2023-04-29T20:40:02.989Z,1.00
2023-04-29T20:45:06.821Z,2.00
2023-04-29T20:50:09.066Z,4.00
2023-04-29T20:55:11.270Z,2.00
2023-04-29T21:00:14.284Z,2.00
2023-04-29T21:05:16.274Z,1.00
2023-04-29T21:10:18.184Z,1.00
2023-04-29T21:15:20.116Z,1.00
2023-04-29T21:20:22.353Z,1.00
2023-04-29T21:25:24.626Z,1.00
2023-04-29T21:30:26.888Z,1.00
2023-04-29T21:35:29.031Z,1.67
2023-04-29T21:40:30.942Z,2.00
2023-04-29T21:45:33.034Z,2.00
2023-04-29T21:50:34.911Z,1.67
2023-04-29T21:55:37.391Z,1.00
2023-04-29T22:00:41.958Z,0.33
2023-04-29T22:05:44.071Z,1.00
2023-04-29T22:10:46.228Z,1.00
2023-04-29T22:15:48.211Z,1.00
2023-04-29T22:20:50.159Z,0.00
2023-04-29T22:25:52.056Z,1.00
2023-04-29T22:30:54.589Z,1.00
2023-04-29T22:35:56.553Z,1.00
2023-04-29T22:40:58.475Z,0.00
2023-04-29T22:46:00.370Z,1.00
2023-04-29T22:51:03.870Z,0.00
2023-04-29T22:56:05.808Z,0.00
2023-04-29T23:01:10.048Z,0.00
2023-04-29T23:06:13.751Z,1.00
2023-04-29T23:11:16.110Z,0.00
2023-04-29T23:16:17.951Z,1.00
2023-04-29T23:21:19.778Z,0.67
2023-04-29T23:26:23.260Z,0.00
2023-04-29T23:31:25.111Z,0.00
2023-04-29T23:36:27.846Z,0.00
2023-04-29T23:41:29.611Z,0.00
2023-04-29T23:46:31.499Z,0.33
2023-04-29T23:51:34.130Z,0.00
2023-04-29T23:56:35.869Z,0.00
